sensor_id;sensor_type;location;lat;lon;timestamp;pressure;altitude;pressure_sealevel;temperature;humidity
50684;BME280;36654;45.042;38.994;2023-06-04T00:00:37;100720.88;;;22.27;72.92
50684;BME280;36654;45.042;38.994;2023-06-04T00:03:03;100711.09;;;22.24;72.67
50684;BME280;36654;45.042;38.994;2023-06-04T00:05:29;100701.47;;;22.15;72.84
50684;BME280;36654;45.042;38.994;2023-06-04T00:07:54;100720.09;;;22.23;72.82
50684;BME280;36654;45.042;38.994;2023-06-04T00:10:20;100701.47;;;22.15;72.56
50684;BME280;36654;45.042;38.994;2023-06-04T00:12:46;100717.53;;;22.18;72.66
50684;BME280;36654;45.042;38.994;2023-06-04T00:15:13;100707.72;;;22.16;72.83
50684;BME280;36654;45.042;38.994;2023-06-04T00:17:39;100680.44;;;22.00;72.58
50684;BME280;36654;45.042;38.994;2023-06-04T00:20:05;100719.34;;;22.20;72.84
50684;BME280;36654;45.042;38.994;2023-06-04T00:22:30;100722.88;;;22.22;72.57
50684;BME280;36654;45.042;38.994;2023-06-04T00:24:56;100727.38;;;22.21;72.93
50684;BME280;36654;45.042;38.994;2023-06-04T00:27:21;100680.56;;;21.97;72.61
50684;BME280;36654;45.042;38.994;2023-06-04T00:29:47;100694.63;;;22.05;72.81
50684;BME280;36654;45.042;38.994;2023-06-04T00:32:13;100725.03;;;22.10;73.07
50684;BME280;36654;45.042;38.994;2023-06-04T00:34:38;100720.69;;;22.06;73.25
50684;BME280;36654;45.042;38.994;2023-06-04T00:37:04;100727.03;;;22.05;73.38
50684;BME280;36654;45.042;38.994;2023-06-04T00:39:30;100716.22;;;22.05;73.36
50684;BME280;36654;45.042;38.994;2023-06-04T00:41:56;100725.28;;;22.04;72.87
50684;BME280;36654;45.042;38.994;2023-06-04T00:44:21;100728.91;;;22.03;72.95
50684;BME280;36654;45.042;38.994;2023-06-04T00:46:51;100716.34;;;22.02;73.14
50684;BME280;36654;45.042;38.994;2023-06-04T00:49:19;100723.59;;;22.02;72.76
50684;BME280;36654;45.042;38.994;2023-06-04T00:51:44;100723.59;;;22.02;72.82
50684;BME280;36654;45.042;38.994;2023-06-04T00:54:11;100728.06;;;22.01;72.73
50684;BME280;36654;45.042;38.994;2023-06-04T00:56:38;100728.97;;;22.02;72.47
50684;BME280;36654;45.042;38.994;2023-06-04T00:59:08;100739.78;;;22.02;72.51
50684;BME280;36654;45.042;38.994;2023-06-04T01:01:57;100730.78;;;22.01;72.59
50684;BME280;36654;45.042;38.994;2023-06-04T01:04:28;100726.31;;;22.00;72.34
50684;BME280;36654;45.042;38.994;2023-06-04T01:06:56;100731.88;;;21.95;72.17
50684;BME280;36654;45.042;38.994;2023-06-04T01:09:26;100729.31;;;21.92;72.08
50684;BME280;36654;45.042;38.994;2023-06-04T01:11:52;100748.22;;;21.91;72.23
50684;BME280;36654;45.042;38.994;2023-06-04T01:14:17;100717.44;;;21.71;71.95
50684;BME280;36654;45.042;38.994;2023-06-04T01:25:20;100758.59;;;21.78;72.34
50684;BME280;36654;45.042;38.994;2023-06-04T01:27:50;100758.53;;;21.80;71.91
50684;BME280;36654;45.042;38.994;2023-06-04T01:30:21;100758.53;;;21.80;72.12
50684;BME280;36654;45.042;38.994;2023-06-04T01:32:48;100764.00;;;21.76;72.06
50684;BME280;36654;45.042;38.994;2023-06-04T01:35:14;100773.06;;;21.75;72.05
50684;BME280;36654;45.042;38.994;2023-06-04T01:37:40;100778.47;;;21.75;71.99
50684;BME280;36654;45.042;38.994;2023-06-04T01:40:06;100783.88;;;21.74;72.25
50684;BME280;36654;45.042;38.994;2023-06-04T01:42:33;100792.97;;;21.71;72.19
50684;BME280;36654;45.042;38.994;2023-06-04T01:44:59;100755.97;;;21.50;71.77
50684;BME280;36654;45.042;38.994;2023-06-04T01:47:25;100792.91;;;21.74;72.21
50684;BME280;36654;45.042;38.994;2023-06-04T01:49:50;100784.06;;;21.69;71.75
50684;BME280;36654;45.042;38.994;2023-06-04T01:52:16;100795.31;;;21.82;71.84
50684;BME280;36654;45.042;38.994;2023-06-04T01:54:42;100801.63;;;21.81;71.56
50684;BME280;36654;45.042;38.994;2023-06-04T01:57:08;100789.25;;;21.75;71.70
50684;BME280;36654;45.042;38.994;2023-06-04T01:59:35;100789.97;;;21.81;71.72
50684;BME280;36654;45.042;38.994;2023-06-04T02:02:02;100796.31;;;21.80;71.41
50684;BME280;36654;45.042;38.994;2023-06-04T02:04:28;100785.41;;;21.83;71.24
50684;BME280;36654;45.042;38.994;2023-06-04T02:06:53;100781.03;;;21.79;71.21
50684;BME280;36654;45.042;38.994;2023-06-04T02:09:19;100779.19;;;21.81;70.90
50684;BME280;36654;45.042;38.994;2023-06-04T02:11:46;100764.13;;;21.73;70.53
50684;BME280;36654;45.042;38.994;2023-06-04T02:14:11;100782.72;;;21.83;70.64
50684;BME280;36654;45.042;38.994;2023-06-04T02:16:37;100751.91;;;21.63;70.30
50684;BME280;36654;45.042;38.994;2023-06-04T02:19:03;100778.34;;;21.79;70.05
50684;BME280;36654;45.042;38.994;2023-06-04T02:21:28;100771.38;;;21.71;70.06
50684;BME280;36654;45.042;38.994;2023-06-04T02:23:54;100780.22;;;21.76;70.17
50684;BME280;36654;45.042;38.994;2023-06-04T02:26:20;100776.03;;;21.68;69.74
50684;BME280;36654;45.042;38.994;2023-06-04T02:28:45;100796.41;;;21.76;69.71
50684;BME280;36654;45.042;38.994;2023-06-04T02:31:11;100790.38;;;21.68;69.46
50684;BME280;36654;45.042;38.994;2023-06-04T02:33:37;100803.56;;;21.78;69.64
50684;BME280;36654;45.042;38.994;2023-06-04T02:36:03;100806.16;;;21.81;69.64
50684;BME280;36654;45.042;38.994;2023-06-04T02:38:29;100806.13;;;21.82;69.83
50684;BME280;36654;45.042;38.994;2023-06-04T02:40:54;100812.38;;;21.83;69.45
50684;BME280;36654;45.042;38.994;2023-06-04T02:43:20;100808.03;;;21.79;69.50
50684;BME280;36654;45.042;38.994;2023-06-04T02:45:46;100801.72;;;21.80;69.21
50684;BME280;36654;45.042;38.994;2023-06-04T02:48:11;100802.53;;;21.82;69.43
50684;BME280;36654;45.042;38.994;2023-06-04T02:50:37;100801.47;;;21.86;69.54
50684;BME280;36654;45.042;38.994;2023-06-04T02:53:03;100801.59;;;21.83;69.66
50684;BME280;36654;45.042;38.994;2023-06-04T02:55:28;100823.88;;;21.89;69.38
50684;BME280;36654;45.042;38.994;2023-06-04T02:57:54;100833.97;;;21.83;69.41
50684;BME280;36654;45.042;38.994;2023-06-04T03:00:20;100838.78;;;21.73;69.95
50684;BME280;36654;45.042;38.994;2023-06-04T03:02:47;100849.22;;;21.57;70.91
50684;BME280;36654;45.042;38.994;2023-06-04T03:05:15;100853.50;;;21.35;72.43
50684;BME280;36654;45.042;38.994;2023-06-04T03:07:44;100828.06;;;20.85;75.12
50684;BME280;36654;45.042;38.994;2023-06-04T03:10:11;100881.50;;;20.70;78.50
50684;BME280;36654;45.042;38.994;2023-06-04T03:12:37;100891.88;;;20.16;83.45
50684;BME280;36654;45.042;38.994;2023-06-04T03:15:03;100864.66;;;19.55;88.08
50684;BME280;36654;45.042;38.994;2023-06-04T03:17:30;100859.44;;;19.10;92.01
50684;BME280;36654;45.042;38.994;2023-06-04T03:19:57;100819.75;;;18.83;94.75
50684;BME280;36654;45.042;38.994;2023-06-04T03:22:23;100822.66;;;18.69;96.50
50684;BME280;36654;45.042;38.994;2023-06-04T03:24:49;100861.25;;;18.65;98.15
50684;BME280;36654;45.042;38.994;2023-06-04T03:27:14;100877.59;;;18.52;99.67
50684;BME280;36654;45.042;38.994;2023-06-04T03:29:40;100878.66;;;18.44;100.00
50684;BME280;36654;45.042;38.994;2023-06-04T03:32:06;100877.78;;;18.42;100.00
50684;BME280;36654;45.042;38.994;2023-06-04T03:34:32;100880.38;;;18.48;100.00
50684;BME280;36654;45.042;38.994;2023-06-04T03:36:58;100889.38;;;18.44;100.00
50684;BME280;36654;45.042;38.994;2023-06-04T03:39:25;100882.38;;;18.37;100.00
50684;BME280;36654;45.042;38.994;2023-06-04T03:41:50;100863.66;;;18.33;100.00
50684;BME280;36654;45.042;38.994;2023-06-04T03:44:17;100910.00;;;18.42;100.00
50684;BME280;36654;45.042;38.994;2023-06-04T03:46:44;100904.69;;;18.40;100.00
50684;BME280;36654;45.042;38.994;2023-06-04T03:49:10;100876.34;;;18.24;100.00
50684;BME280;36654;45.042;38.994;2023-06-04T03:51:37;100916.34;;;18.38;100.00
50684;BME280;36654;45.042;38.994;2023-06-04T03:54:03;100919.84;;;18.43;100.00
50684;BME280;36654;45.042;38.994;2023-06-04T03:56:29;100925.03;;;18.52;100.00
50684;BME280;36654;45.042;38.994;2023-06-04T03:58:55;100887.66;;;18.41;100.00
50684;BME280;36654;45.042;38.994;2023-06-04T04:01:21;100910.63;;;18.56;100.00
50684;BME280;36654;45.042;38.994;2023-06-04T04:03:49;100921.38;;;18.56;100.00
50684;BME280;36654;45.042;38.994;2023-06-04T04:06:15;100924.34;;;18.41;100.00
50684;BME280;36654;45.042;38.994;2023-06-04T04:08:41;100925.22;;;18.41;100.00
50684;BME280;36654;45.042;38.994;2023-06-04T04:11:11;100924.41;;;18.38;100.00
50684;BME280;36654;45.042;38.994;2023-06-04T04:13:37;100928.78;;;18.43;100.00
50684;BME280;36654;45.042;38.994;2023-06-04T04:16:03;100903.84;;;18.37;100.00
50684;BME280;36654;45.042;38.994;2023-06-04T04:18:32;100906.50;;;18.40;100.00
50684;BME280;36654;45.042;38.994;2023-06-04T04:20:59;100906.34;;;18.46;100.00
50684;BME280;36654;45.042;38.994;2023-06-04T04:23:24;100919.91;;;18.40;100.00
50684;BME280;36654;45.042;38.994;2023-06-04T04:25:50;100930.56;;;18.43;100.00
50684;BME280;36654;45.042;38.994;2023-06-04T04:28:16;100944.13;;;18.35;100.00
50684;BME280;36654;45.042;38.994;2023-06-04T04:30:43;100940.59;;;18.31;100.00
50684;BME280;36654;45.042;38.994;2023-06-04T04:33:09;100938.94;;;18.24;99.95
50684;BME280;36654;45.042;38.994;2023-06-04T04:35:36;100952.31;;;18.27;100.00
50684;BME280;36654;45.042;38.994;2023-06-04T04:38:02;100956.75;;;18.28;100.00
50684;BME280;36654;45.042;38.994;2023-06-04T04:40:31;100930.88;;;18.24;100.00
50684;BME280;36654;45.042;38.994;2023-06-04T04:42:57;100937.97;;;18.28;100.00
50684;BME280;36654;45.042;38.994;2023-06-04T04:45:23;100906.13;;;18.10;100.00
50684;BME280;36654;45.042;38.994;2023-06-04T04:47:49;100953.16;;;18.29;100.00
50684;BME280;36654;45.042;38.994;2023-06-04T04:50:16;100961.53;;;18.11;100.00
50684;BME280;36654;45.042;38.994;2023-06-04T04:52:42;100947.25;;;18.09;100.00
50684;BME280;36654;45.042;38.994;2023-06-04T04:55:08;100979.44;;;18.09;100.00
50684;BME280;36654;45.042;38.994;2023-06-04T04:57:34;100985.91;;;17.97;100.00
50684;BME280;36654;45.042;38.994;2023-06-04T05:00:01;100983.19;;;17.99;100.00
50684;BME280;36654;45.042;38.994;2023-06-04T05:02:28;100989.53;;;17.93;100.00
50684;BME280;36654;45.042;38.994;2023-06-04T05:04:53;100941.66;;;17.65;100.00
50684;BME280;36654;45.042;38.994;2023-06-04T05:07:19;100969.13;;;17.81;100.00
50684;BME280;36654;45.042;38.994;2023-06-04T05:09:46;100979.91;;;17.80;100.00
50684;BME280;36654;45.042;38.994;2023-06-04T05:12:12;100956.81;;;17.66;100.00
50684;BME280;36654;45.042;38.994;2023-06-04T05:14:38;100979.00;;;17.76;100.00
50684;BME280;36654;45.042;38.994;2023-06-04T05:17:03;100956.03;;;17.60;100.00
50684;BME280;36654;45.042;38.994;2023-06-04T05:19:29;100992.47;;;17.73;100.00
50684;BME280;36654;45.042;38.994;2023-06-04T05:21:58;100986.25;;;17.69;100.00
50684;BME280;36654;45.042;38.994;2023-06-04T05:24:24;100999.59;;;17.74;100.00
50684;BME280;36654;45.042;38.994;2023-06-04T05:26:50;101002.28;;;17.74;100.00
50684;BME280;36654;45.042;38.994;2023-06-04T05:29:15;100997.75;;;17.82;100.00
50684;BME280;36654;45.042;38.994;2023-06-04T05:31:41;101004.81;;;17.86;100.00
50684;BME280;36654;45.042;38.994;2023-06-04T05:34:07;100996.81;;;17.85;100.00
50684;BME280;36654;45.042;38.994;2023-06-04T05:36:32;100975.47;;;17.74;98.97
50684;BME280;36654;45.042;38.994;2023-06-04T05:38:58;100977.06;;;17.91;97.99
50684;BME280;36654;45.042;38.994;2023-06-04T05:41:27;100971.88;;;17.80;97.04
50684;BME280;36654;45.042;38.994;2023-06-04T05:43:53;100986.91;;;17.88;97.01
50684;BME280;36654;45.042;38.994;2023-06-04T05:46:19;100990.53;;;17.84;97.17
50684;BME280;36654;45.042;38.994;2023-06-04T05:48:45;100995.97;;;17.78;96.28
50684;BME280;36654;45.042;38.994;2023-06-04T05:51:13;100988.97;;;17.68;96.12
50684;BME280;36654;45.042;38.994;2023-06-04T05:53:39;100977.31;;;17.69;96.68
50684;BME280;36654;45.042;38.994;2023-06-04T05:56:05;101012.22;;;17.66;96.82
50684;BME280;36654;45.042;38.994;2023-06-04T05:58:33;101008.59;;;17.70;96.95
50684;BME280;36654;45.042;38.994;2023-06-04T06:00:59;101017.41;;;17.78;97.98
50684;BME280;36654;45.042;38.994;2023-06-04T06:03:25;101006.69;;;17.81;98.16
50684;BME280;36654;45.042;38.994;2023-06-04T06:05:52;101033.50;;;17.81;97.71
50684;BME280;36654;45.042;38.994;2023-06-04T06:08:20;100976.56;;;17.61;98.42
50684;BME280;36654;45.042;38.994;2023-06-04T06:10:46;101031.69;;;17.83;98.00
50684;BME280;36654;45.042;38.994;2023-06-04T06:13:12;101031.63;;;17.86;97.56
50684;BME280;36654;45.042;38.994;2023-06-04T06:15:38;101031.63;;;17.86;96.93
50684;BME280;36654;45.042;38.994;2023-06-04T06:18:04;101069.22;;;17.83;95.99
50684;BME280;36654;45.042;38.994;2023-06-04T06:20:30;101035.63;;;17.55;95.72
50684;BME280;36654;45.042;38.994;2023-06-04T06:22:55;101000.91;;;17.44;96.21
50684;BME280;36654;45.042;38.994;2023-06-04T06:25:21;101070.31;;;17.65;97.07
50684;BME280;36654;45.042;38.994;2023-06-04T06:27:47;101071.13;;;17.72;97.86
50684;BME280;36654;45.042;38.994;2023-06-04T06:30:13;101028.38;;;17.63;97.61
50684;BME280;36654;45.042;38.994;2023-06-04T06:32:39;101056.94;;;17.64;98.02
50684;BME280;36654;45.042;38.994;2023-06-04T06:35:05;101050.72;;;17.60;98.16
50684;BME280;36654;45.042;38.994;2023-06-04T06:37:33;101029.38;;;17.53;98.71
50684;BME280;36654;45.042;38.994;2023-06-04T06:39:58;101044.50;;;17.57;99.07
50684;BME280;36654;45.042;38.994;2023-06-04T06:42:24;101049.88;;;17.57;99.75
50684;BME280;36654;45.042;38.994;2023-06-04T06:44:50;101081.09;;;17.61;100.00
50684;BME280;36654;45.042;38.994;2023-06-04T06:47:16;101090.06;;;17.58;100.00
50684;BME280;36654;45.042;38.994;2023-06-04T06:49:42;101107.03;;;17.59;100.00
50684;BME280;36654;45.042;38.994;2023-06-04T06:52:08;101090.16;;;17.51;100.00
50684;BME280;36654;45.042;38.994;2023-06-04T06:54:34;101100.09;;;17.42;100.00
50684;BME280;36654;45.042;38.994;2023-06-04T06:57:00;101092.94;;;17.41;100.00
50684;BME280;36654;45.042;38.994;2023-06-04T06:59:27;101082.22;;;17.43;100.00
50684;BME280;36654;45.042;38.994;2023-06-04T07:01:52;101082.22;;;17.41;100.00
50684;BME280;36654;45.042;38.994;2023-06-04T07:04:18;101061.66;;;17.43;100.00
50684;BME280;36654;45.042;38.994;2023-06-04T07:06:44;101054.53;;;17.42;100.00
50684;BME280;36654;45.042;38.994;2023-06-04T07:09:10;101044.59;;;17.51;100.00
50684;BME280;36654;45.042;38.994;2023-06-04T07:11:35;101057.97;;;17.54;100.00
50684;BME280;36654;45.042;38.994;2023-06-04T07:14:01;101055.22;;;17.58;100.00
50684;BME280;36654;45.042;38.994;2023-06-04T07:16:29;101059.66;;;17.61;100.00
50684;BME280;36654;45.042;38.994;2023-06-04T07:18:55;101051.63;;;17.61;100.00
50684;BME280;36654;45.042;38.994;2023-06-04T07:21:21;101030.31;;;17.49;100.00
50684;BME280;36654;45.042;38.994;2023-06-04T07:23:49;101080.94;;;17.75;100.00
50684;BME280;36654;45.042;38.994;2023-06-04T07:26:17;101082.75;;;17.71;100.00
50684;BME280;36654;45.042;38.994;2023-06-04T07:28:43;101092.50;;;17.78;100.00
50684;BME280;36654;45.042;38.994;2023-06-04T07:31:09;101084.41;;;17.84;100.00
50684;BME280;36654;45.042;38.994;2023-06-04T07:33:35;101069.28;;;17.80;100.00
50684;BME280;36654;45.042;38.994;2023-06-04T07:36:10;101088.81;;;17.88;100.00
50684;BME280;36654;45.042;38.994;2023-06-04T07:38:36;101086.91;;;17.97;100.00
50684;BME280;36654;45.042;38.994;2023-06-04T07:41:01;101061.19;;;17.83;100.00
50684;BME280;36654;45.042;38.994;2023-06-04T07:43:27;101090.47;;;17.99;100.00
50684;BME280;36654;45.042;38.994;2023-06-04T07:45:53;101086.03;;;17.98;100.00
50684;BME280;36654;45.042;38.994;2023-06-04T07:48:18;101101.25;;;17.96;100.00
50684;BME280;36654;45.042;38.994;2023-06-04T07:50:44;101094.03;;;17.99;100.00
50684;BME280;36654;45.042;38.994;2023-06-04T07:53:09;101095.88;;;17.96;100.00
50684;BME280;36654;45.042;38.994;2023-06-04T07:55:35;101118.28;;;17.93;100.00
50684;BME280;36654;45.042;38.994;2023-06-04T07:58:00;101087.13;;;17.81;100.00
50684;BME280;36654;45.042;38.994;2023-06-04T08:00:26;101090.69;;;17.83;100.00
50684;BME280;36654;45.042;38.994;2023-06-04T08:02:52;101111.03;;;18.00;100.00
50684;BME280;36654;45.042;38.994;2023-06-04T08:05:17;101111.81;;;18.06;100.00
50684;BME280;36654;45.042;38.994;2023-06-04T08:07:43;101105.53;;;18.09;100.00
50684;BME280;36654;45.042;38.994;2023-06-04T08:10:09;101116.41;;;18.00;99.68
50684;BME280;36654;45.042;38.994;2023-06-04T08:12:35;101135.97;;;18.06;98.91
50684;BME280;36654;45.042;38.994;2023-06-04T08:15:02;101118.28;;;17.93;99.55
50684;BME280;36654;45.042;38.994;2023-06-04T08:17:28;101140.56;;;17.97;99.55
50684;BME280;36654;45.042;38.994;2023-06-04T08:19:55;101135.28;;;17.91;100.00
50684;BME280;36654;45.042;38.994;2023-06-04T08:22:21;101162.00;;;17.98;100.00
50684;BME280;36654;45.042;38.994;2023-06-04T08:24:47;101152.31;;;17.88;100.00
50684;BME280;36654;45.042;38.994;2023-06-04T08:27:12;101128.28;;;17.80;99.74
50684;BME280;36654;45.042;38.994;2023-06-04T08:29:38;101153.13;;;17.95;100.00
50684;BME280;36654;45.042;38.994;2023-06-04T08:32:05;101082.06;;;17.54;99.99
50684;BME280;36654;45.042;38.994;2023-06-04T08:34:32;101146.94;;;17.88;100.00
50684;BME280;36654;45.042;38.994;2023-06-04T08:36:58;101171.03;;;17.93;100.00
50684;BME280;36654;45.042;38.994;2023-06-04T08:39:24;101116.75;;;17.69;100.00
50684;BME280;36654;45.042;38.994;2023-06-04T08:41:52;101162.97;;;17.93;100.00
50684;BME280;36654;45.042;38.994;2023-06-04T08:44:20;101162.97;;;17.93;100.00
50684;BME280;36654;45.042;38.994;2023-06-04T08:46:47;101141.69;;;17.76;100.00
50684;BME280;36654;45.042;38.994;2023-06-04T08:49:16;101161.19;;;17.92;100.00
50684;BME280;36654;45.042;38.994;2023-06-04T08:51:44;101152.25;;;17.91;100.00
50684;BME280;36654;45.042;38.994;2023-06-04T08:54:09;101153.19;;;17.90;100.00
50684;BME280;36654;45.042;38.994;2023-06-04T08:56:36;101149.59;;;17.89;100.00
50684;BME280;36654;45.042;38.994;2023-06-04T08:59:06;101103.28;;;17.75;100.00
50684;BME280;36654;45.042;38.994;2023-06-04T09:01:33;101136.94;;;17.99;100.00
50684;BME280;36654;45.042;38.994;2023-06-04T09:04:02;101153.78;;;18.12;100.00
50684;BME280;36654;45.042;38.994;2023-06-04T09:06:29;101161.81;;;18.12;100.00
50684;BME280;36654;45.042;38.994;2023-06-04T09:08:56;101156.44;;;18.12;100.00
50684;BME280;36654;45.042;38.994;2023-06-04T09:11:52;101161.75;;;18.18;100.00
50684;BME280;36654;45.042;38.994;2023-06-04T09:14:18;101156.44;;;18.12;100.00
50684;BME280;36654;45.042;38.994;2023-06-04T09:16:45;101160.84;;;18.19;100.00
50684;BME280;36654;45.042;38.994;2023-06-04T09:19:10;101168.88;;;18.19;100.00
50684;BME280;36654;45.042;38.994;2023-06-04T09:21:59;101162.69;;;18.17;100.00
50684;BME280;36654;45.042;38.994;2023-06-04T09:24:43;101154.63;;;18.14;100.00
50684;BME280;36654;45.042;38.994;2023-06-04T09:27:18;101165.38;;;18.14;100.00
50684;BME280;36654;45.042;38.994;2023-06-04T09:29:58;101165.41;;;18.11;100.00
50684;BME280;36654;45.042;38.994;2023-06-04T09:32:28;101164.59;;;18.07;100.00
50684;BME280;36654;45.042;38.994;2023-06-04T09:35:12;101120.13;;;17.86;100.00
50684;BME280;36654;45.042;38.994;2023-06-04T09:37:40;101135.28;;;17.91;100.00
50684;BME280;36654;45.042;38.994;2023-06-04T09:40:07;101164.53;;;18.10;100.00
50684;BME280;36654;45.042;38.994;2023-06-04T09:42:46;101164.53;;;18.09;100.00
50684;BME280;36654;45.042;38.994;2023-06-04T09:45:35;101156.53;;;18.06;100.00
50684;BME280;36654;45.042;38.994;2023-06-04T09:48:02;101160.16;;;18.05;100.00
50684;BME280;36654;45.042;38.994;2023-06-04T09:50:30;101151.28;;;18.00;100.00
50684;BME280;36654;45.042;38.994;2023-06-04T09:52:56;101156.59;;;18.03;100.00
50684;BME280;36654;45.042;38.994;2023-06-04T09:55:22;101154.84;;;17.99;100.00
50684;BME280;36654;45.042;38.994;2023-06-04T09:57:49;101144.13;;;17.99;100.00
50684;BME280;36654;45.042;38.994;2023-06-04T10:00:20;101148.59;;;17.98;100.00
50684;BME280;36654;45.042;38.994;2023-06-04T10:02:48;101145.03;;;17.96;100.00
50684;BME280;36654;45.042;38.994;2023-06-04T10:05:15;101145.91;;;18.00;100.00
50684;BME280;36654;45.042;38.994;2023-06-04T10:07:45;101132.50;;;17.97;100.00
50684;BME280;36654;45.042;38.994;2023-06-04T10:10:15;101145.88;;;18.01;100.00
50684;BME280;36654;45.042;38.994;2023-06-04T10:12:42;101138.69;;;18.05;100.00
50684;BME280;36654;45.042;38.994;2023-06-04T10:15:13;101096.88;;;17.88;100.00
50684;BME280;36654;45.042;38.994;2023-06-04T10:17:39;101136.78;;;18.13;100.00
50684;BME280;36654;45.042;38.994;2023-06-04T10:20:09;101137.63;;;18.17;100.00
50684;BME280;36654;45.042;38.994;2023-06-04T10:22:37;101130.38;;;18.25;100.00
50684;BME280;36654;45.042;38.994;2023-06-04T10:25:03;101134.72;;;18.32;100.00
50684;BME280;36654;45.042;38.994;2023-06-04T10:27:32;101129.16;;;18.46;100.00
50684;BME280;36654;45.042;38.994;2023-06-04T10:30:02;101119.16;;;18.54;100.00
50684;BME280;36654;45.042;38.994;2023-06-04T10:32:29;101120.03;;;18.58;100.00
50684;BME280;36654;45.042;38.994;2023-06-04T10:34:55;101120.78;;;18.67;100.00
50684;BME280;36654;45.042;38.994;2023-06-04T10:37:26;101113.50;;;18.77;100.00
50684;BME280;36654;45.042;38.994;2023-06-04T10:39:56;101110.66;;;18.85;100.00
50684;BME280;36654;45.042;38.994;2023-06-04T10:42:23;101116.72;;;18.98;100.00
50684;BME280;36654;45.042;38.994;2023-06-04T10:44:51;101112.16;;;19.01;100.00
50684;BME280;36654;45.042;38.994;2023-06-04T10:49:50;101112.16;;;19.01;99.09
50684;BME280;36654;45.042;38.994;2023-06-04T10:52:17;101115.59;;;19.09;98.53
50684;BME280;36654;45.042;38.994;2023-06-04T10:54:44;101108.28;;;19.17;98.21
50684;BME280;36654;45.042;38.994;2023-06-04T10:57:14;101078.88;;;19.10;97.48
50684;BME280;36654;45.042;38.994;2023-06-04T10:59:41;101121.22;;;19.45;95.99
50684;BME280;36654;45.042;38.994;2023-06-04T11:02:08;101133.41;;;19.61;96.33
50684;BME280;36654;45.042;38.994;2023-06-04T11:04:35;101123.38;;;19.73;95.91
50684;BME280;36654;45.042;38.994;2023-06-04T11:07:05;101128.50;;;19.85;95.67
50684;BME280;36654;45.042;38.994;2023-06-04T11:09:35;101130.09;;;19.95;95.29
50684;BME280;36654;45.042;38.994;2023-06-04T11:12:03;101140.69;;;20.01;95.91
50684;BME280;36654;45.042;38.994;2023-06-04T11:14:29;101152.06;;;20.16;96.29
50684;BME280;36654;45.042;38.994;2023-06-04T11:16:55;101144.84;;;20.18;95.21
50684;BME280;36654;45.042;38.994;2023-06-04T11:19:21;101151.88;;;20.23;93.58
50684;BME280;36654;45.042;38.994;2023-06-04T11:21:47;101140.25;;;20.23;91.82
50684;BME280;36654;45.042;38.994;2023-06-04T11:24:13;101133.91;;;20.25;89.87
50684;BME280;36654;45.042;38.994;2023-06-04T11:26:39;101152.56;;;20.33;90.19
50684;BME280;36654;45.042;38.994;2023-06-04T11:29:11;101136.13;;;20.45;90.87
50684;BME280;36654;45.042;38.994;2023-06-04T11:31:47;101129.00;;;20.44;90.44
50684;BME280;36654;45.042;38.994;2023-06-04T11:34:25;101153.00;;;20.55;88.84
50684;BME280;36654;45.042;38.994;2023-06-04T11:36:51;101152.13;;;20.52;89.04
50684;BME280;36654;45.042;38.994;2023-06-04T11:39:21;101154.66;;;20.61;90.34
50684;BME280;36654;45.042;38.994;2023-06-04T11:41:47;101153.69;;;20.65;88.98
50684;BME280;36654;45.042;38.994;2023-06-04T11:44:14;101124.41;;;20.48;86.82
50684;BME280;36654;45.042;38.994;2023-06-04T11:46:41;101146.56;;;20.61;84.88
50684;BME280;36654;45.042;38.994;2023-06-04T11:49:11;101162.53;;;20.70;84.22
50684;BME280;36654;45.042;38.994;2023-06-04T11:51:37;101162.16;;;20.85;84.83
50684;BME280;36654;45.042;38.994;2023-06-04T11:54:03;101145.00;;;20.89;84.15
50684;BME280;36654;45.042;38.994;2023-06-04T11:56:28;101174.94;;;21.13;83.76
50684;BME280;36654;45.042;38.994;2023-06-04T11:58:54;101175.78;;;21.15;82.74
50684;BME280;36654;45.042;38.994;2023-06-04T12:01:21;101167.91;;;21.06;82.11
50684;BME280;36654;45.042;38.994;2023-06-04T12:03:48;101169.72;;;21.07;82.31
50684;BME280;36654;45.042;38.994;2023-06-04T12:06:18;101158.22;;;20.99;82.17
50684;BME280;36654;45.042;38.994;2023-06-04T12:08:52;101171.50;;;21.06;81.79
50684;BME280;36654;45.042;38.994;2023-06-04T12:13:57;101150.06;;;21.02;80.66
50684;BME280;36654;45.042;38.994;2023-06-04T12:16:23;101172.47;;;21.04;79.55
50684;BME280;36654;45.042;38.994;2023-06-04T12:18:49;101169.25;;;20.89;79.42
50684;BME280;36654;45.042;38.994;2023-06-04T12:21:25;101170.13;;;20.90;80.98
50684;BME280;36654;45.042;38.994;2023-06-04T12:24:13;101186.06;;;20.99;81.02
50684;BME280;36654;45.042;38.994;2023-06-04T12:26:41;101192.25;;;21.03;80.29
50684;BME280;36654;45.042;38.994;2023-06-04T12:29:12;101182.16;;;21.11;80.46
50684;BME280;36654;45.042;38.994;2023-06-04T12:31:43;101150.19;;;20.97;79.21
50684;BME280;36654;45.042;38.994;2023-06-04T12:34:13;101162.59;;;21.04;78.39
50684;BME280;36654;45.042;38.994;2023-06-04T12:36:39;101155.47;;;21.02;78.89
50684;BME280;36654;45.042;38.994;2023-06-04T12:39:06;101138.28;;;21.06;78.01
50684;BME280;36654;45.042;38.994;2023-06-04T12:41:33;101196.16;;;21.27;77.60
50684;BME280;36654;45.042;38.994;2023-06-04T12:43:59;101190.75;;;21.27;76.01
50684;BME280;36654;45.042;38.994;2023-06-04T12:46:26;101189.75;;;21.31;76.00
50684;BME280;36654;45.042;38.994;2023-06-04T12:48:53;101186.91;;;21.37;75.62